Time;durP1;ratioP1;P1;durP2;ratioP2;P2;SDS_P1;SDS_P2;PMS_P1;PMS_P2;Temp;Humidity;BMP_temperature;BMP_pressure;BME280_temperature;BME280_humidity;BME280_pressure;Samples;Min_cycle;Max_cycle;Signal;HPM_P1;HPM_P2
2022/05/11 00:01:12;;;;;;;9.90;8.90;;;;;;;18.83;65.70;100631.63;4997842;28;20228;-82
2022/05/11 00:03:39;;;;;;;10.63;9.47;;;;;;;18.76;66.13;100619.75;4997491;28;20224;-80
2022/05/11 00:06:06;;;;;;;10.27;9.27;;;;;;;18.71;66.53;100620.19;4984686;28;20653;-80
2022/05/11 00:08:32;;;;;;;10.10;9.20;;;;;;;18.67;66.58;100617.94;4976600;28;20224;-80
2022/05/11 00:11:01;;;;;;;12.40;9.63;;;;;;;18.63;66.94;100609.28;4980783;28;20211;-80
2022/05/11 00:13:28;;;;;;;10.93;9.50;;;;;;;18.61;66.88;100608.63;4996016;28;20212;-81
2022/05/11 00:15:55;;;;;;;10.17;9.27;;;;;;;18.55;67.09;100609.19;4996327;28;20200;-81
2022/05/11 00:18:22;;;;;;;11.17;9.97;;;;;;;18.52;67.30;100617.56;5005272;28;20227;-80
2022/05/11 00:20:48;;;;;;;11.43;10.30;;;;;;;18.52;67.66;100612.16;5016883;28;20240;-81
2022/05/11 00:23:15;;;;;;;10.20;9.20;;;;;;;18.51;67.60;100609.63;5017707;28;20200;-80
2022/05/11 00:25:44;;;;;;;10.63;9.57;;;;;;;18.49;67.59;100609.75;5017865;28;20212;-81
2022/05/11 00:28:12;;;;;;;11.60;10.40;;;;;;;18.47;67.59;100609.06;5000082;28;20227;-81
2022/05/11 00:30:38;;;;;;;12.67;10.40;;;;;;;18.46;67.79;100604.66;5007073;28;20209;-81
2022/05/11 00:33:05;;;;;;;13.23;9.90;;;;;;;18.44;67.69;100592.34;4999924;28;20205;-80
2022/05/11 00:35:34;;;;;;;13.60;9.97;;;;;;;18.40;67.80;100597.19;4987224;28;20492;-81
2022/05/11 00:38:01;;;;;;;11.87;10.70;;;;;;;18.34;67.96;100586.97;4977053;28;20245;-80
2022/05/11 00:40:28;;;;;;;10.97;9.87;;;;;;;18.29;68.31;100591.97;4987397;28;20247;-81
2022/05/11 00:42:55;;;;;;;11.37;10.23;;;;;;;18.22;68.50;100594.41;4983043;28;20683;-80
2022/05/11 00:45:23;;;;;;;10.57;9.57;;;;;;;18.17;68.76;100591.31;4976994;28;20212;-80
2022/05/11 00:47:52;;;;;;;11.80;9.63;;;;;;;18.14;69.02;100586.22;4981836;28;20796;-80
2022/05/11 00:50:20;;;;;;;12.27;9.80;;;;;;;18.10;69.24;100589.34;4994505;28;20211;-80
2022/05/11 00:52:52;;;;;;;11.37;10.27;;;;;;;18.08;69.35;100591.34;4988217;28;20323;-80
2022/05/11 00:55:23;;;;;;;10.80;9.80;;;;;;;18.06;69.61;100586.09;4985442;28;20561;-80
2022/05/11 00:57:56;;;;;;;11.00;9.90;;;;;;;18.04;69.59;100591.66;4983873;28;20226;-80
2022/05/11 01:00:25;;;;;;;12.07;9.73;;;;;;;18.04;69.60;100591.66;4995371;28;20198;-80
2022/05/11 01:02:55;;;;;;;14.00;11.17;;;;;;;18.06;69.66;100590.66;5007265;28;20216;-79
2022/05/11 01:05:22;;;;;;;13.47;10.97;;;;;;;18.07;69.69;100589.66;4988163;28;20201;-80
2022/05/11 01:07:49;;;;;;;12.13;11.00;;;;;;;18.06;69.54;100596.88;4998238;28;20227;-80
2022/05/11 01:10:16;;;;;;;14.10;11.47;;;;;;;18.07;69.55;100597.75;5016752;28;20212;-80
2022/05/11 01:12:47;;;;;;;13.27;10.77;;;;;;;18.09;69.70;100603.84;5016445;28;20689;-80
2022/05/11 01:15:17;;;;;;;14.37;10.70;;;;;;;18.12;70.21;100598.97;5017686;28;20211;-80
2022/05/11 01:17:45;;;;;;;11.50;10.33;;;;;;;18.15;70.24;100600.53;5015967;28;20235;-80
2022/05/11 01:20:17;;;;;;;13.20;11.17;;;;;;;18.18;70.52;100598.41;5007081;28;20654;-81
2022/05/11 01:22:51;;;;;;;12.37;10.83;;;;;;;18.20;70.97;100600.94;4996929;28;20222;-81
2022/05/11 01:25:20;;;;;;;13.03;11.77;;;;;;;18.22;70.99;100597.13;4996125;28;20289;-81
2022/05/11 01:27:48;;;;;;;13.10;11.80;;;;;;;18.23;71.35;100604.22;4996726;28;20227;-80
2022/05/11 01:30:16;;;;;;;13.60;11.50;;;;;;;18.23;71.50;100598.81;4997368;28;20717;-80
2022/05/11 01:32:46;;;;;;;15.50;11.93;;;;;;;18.23;72.00;100598.81;4996767;28;20210;-80
2022/05/11 01:35:33;;;;;;;14.10;12.20;;;;;;;18.22;72.34;100591.72;4997248;28;20214;-80
2022/05/11 01:38:09;;;;;;;13.40;12.10;;;;;;;18.17;72.40;100571.59;4995274;28;20755;-80
2022/05/11 01:40:37;;;;;;;11.47;10.37;;;;;;;18.12;72.83;100563.09;4995461;28;20193;-79
2022/05/11 01:43:03;;;;;;;12.53;11.00;;;;;;;18.03;73.04;100573.78;4996635;28;20213;-80
2022/05/11 01:45:30;;;;;;;11.93;10.53;;;;;;;17.97;73.51;100571.66;4997045;28;20210;-80
2022/05/11 01:47:57;;;;;;;11.80;10.33;;;;;;;17.92;73.88;100568.53;4996125;28;20601;-80
2022/05/11 01:50:27;;;;;;;11.90;9.70;;;;;;;17.89;74.08;100563.47;4995392;28;20215;-80
2022/05/11 01:52:53;;;;;;;12.13;9.67;;;;;;;17.86;74.34;100560.22;4996437;28;20216;-80
2022/05/11 01:55:20;;;;;;;10.70;9.33;;;;;;;17.82;74.54;100562.34;4996266;28;20698;-79
2022/05/11 01:57:48;;;;;;;10.97;9.87;;;;;;;17.79;74.50;100565.31;4996263;28;20239;-79
2022/05/11 02:00:15;;;;;;;11.37;9.60;;;;;;;17.74;74.62;100556.81;4995924;28;20211;-79
2022/05/11 02:02:41;;;;;;;12.47;10.70;;;;;;;17.69;75.03;100557.28;4995277;28;20242;-80
2022/05/11 02:07:53;;;;;;;11.57;10.37;;;;;;;17.60;75.13;100541.94;4995554;28;20263;-80
2022/05/11 02:10:22;;;;;;;11.30;9.90;;;;;;;17.56;75.11;100539.66;4995172;28;20211;-82
2022/05/11 02:12:50;;;;;;;10.97;9.13;;;;;;;17.53;75.10;100518.44;5011850;28;20196;-83
2022/05/11 02:15:19;;;;;;;11.10;9.87;;;;;;;17.46;75.13;100512.78;5012544;28;20213;-82
2022/05/11 02:17:46;;;;;;;13.53;10.30;;;;;;;17.41;75.11;100506.97;5011861;28;20242;-83
2022/05/11 02:20:14;;;;;;;11.17;10.03;;;;;;;17.37;75.46;100510.13;5003487;28;20208;-84
2022/05/11 02:22:42;;;;;;;12.60;11.40;;;;;;;17.33;75.90;100523.84;5004344;28;20759;-84
2022/05/11 02:25:10;;;;;;;12.00;10.40;;;;;;;17.32;76.09;100524.00;4994570;28;20562;-83
2022/05/11 02:27:37;;;;;;;13.13;10.10;;;;;;;17.29;76.38;100516.19;4985723;28;20213;-84
2022/05/11 02:30:07;;;;;;;11.80;10.17;;;;;;;17.27;76.31;100513.66;4976323;28;20206;-84
2022/05/11 02:32:33;;;;;;;11.40;10.30;;;;;;;17.20;76.26;100512.50;5000126;28;20238;-83
2022/05/11 02:35:16;;;;;;;13.77;11.17;;;;;;;17.18;76.61;100505.59;4991737;28;20217;-84
2022/05/11 02:37:46;;;;;;;12.23;11.07;;;;;;;17.15;76.89;100506.72;4996431;28;20720;-84
2022/05/11 02:40:14;;;;;;;12.73;11.23;;;;;;;17.13;76.84;100503.34;4997944;28;20205;-84
2022/05/11 02:42:41;;;;;;;12.40;11.00;;;;;;;17.10;77.39;100489.31;4997194;28;20732;-84
2022/05/11 02:45:10;;;;;;;13.47;11.07;;;;;;;17.10;77.56;100494.69;4989156;28;20214;-84
2022/05/11 02:47:37;;;;;;;13.10;11.63;;;;;;;17.06;77.69;100494.13;4994916;28;20207;-84
2022/05/11 02:50:05;;;;;;;14.23;12.03;;;;;;;17.04;78.09;100493.41;5003786;28;20214;-83
2022/05/11 02:52:32;;;;;;;13.03;11.77;;;;;;;17.04;78.33;100498.78;4987679;28;20209;-83
2022/05/11 02:54:58;;;;;;;13.30;11.90;;;;;;;17.02;78.29;100490.00;4988357;28;20205;-83
2022/05/11 02:57:25;;;;;;;13.43;12.03;;;;;;;17.00;78.51;100492.88;4989778;28;20295;-83
2022/05/11 02:59:52;;;;;;;14.23;12.10;;;;;;;16.99;78.47;100501.06;4985710;28;20580;-83
2022/05/11 03:02:21;;;;;;;13.37;11.97;;;;;;;16.97;78.57;100493.16;4977049;28;20314;-84
2022/05/11 03:04:48;;;;;;;14.90;12.47;;;;;;;16.96;78.42;100491.44;4977388;28;20253;-83
2022/05/11 03:07:14;;;;;;;14.00;12.37;;;;;;;16.96;78.30;100490.59;4994355;28;20231;-83
2022/05/11 03:09:41;;;;;;;13.23;11.90;;;;;;;16.94;78.34;100482.66;4996841;28;20236;-84
2022/05/11 03:12:09;;;;;;;14.10;12.67;;;;;;;16.90;78.50;100481.25;5005399;28;20205;-84
2022/05/11 03:14:35;;;;;;;14.97;12.00;;;;;;;16.89;78.74;100479.53;5016301;28;20667;-84
2022/05/11 03:17:03;;;;;;;13.10;11.90;;;;;;;16.88;78.60;100474.28;4999471;28;20204;-84
2022/05/11 03:19:31;;;;;;;12.97;11.67;;;;;;;16.86;78.84;100478.97;4996398;28;20234;-84
2022/05/11 03:21:58;;;;;;;14.40;12.53;;;;;;;16.84;78.62;100471.03;4988359;28;20236;-84
2022/05/11 03:24:25;;;;;;;12.40;11.20;;;;;;;16.80;78.66;100469.66;4976876;28;20640;-84
2022/05/11 03:26:51;;;;;;;14.10;12.60;;;;;;;16.77;78.94;100467.22;4977385;28;20207;-83
2022/05/11 03:29:19;;;;;;;12.73;11.40;;;;;;;16.76;78.99;100459.31;4979575;28;20317;-83
2022/05/11 03:34:36;;;;;;;13.00;11.70;;;;;;;16.75;78.65;100453.06;4995327;28;20217;-84
2022/05/11 03:34:37;;;;;;;13.50;11.90;;;;;;;16.73;78.77;100446.97;4999203;28;20664;-84
2022/05/11 03:37:03;;;;;;;13.57;12.17;;;;;;;16.70;78.86;100441.88;4996029;28;20208;-83
2022/05/11 03:39:30;;;;;;;14.47;11.77;;;;;;;16.69;78.88;100447.41;4988192;28;20694;-84
2022/05/11 03:41:57;;;;;;;13.17;11.97;;;;;;;16.67;79.12;100452.91;5003339;28;20788;-83
2022/05/11 03:44:23;;;;;;;13.00;11.67;;;;;;;16.66;79.14;100448.53;4989098;28;20205;-84
2022/05/11 03:46:50;;;;;;;12.77;11.50;;;;;;;16.66;79.12;100445.84;4991985;28;20206;-83
2022/05/11 03:49:16;;;;;;;13.13;11.70;;;;;;;16.64;79.15;100448.69;5004329;28;20229;-83
2022/05/11 03:51:44;;;;;;;13.97;12.40;;;;;;;16.63;79.30;100441.63;5004870;28;20208;-83
2022/05/11 03:54:11;;;;;;;13.57;12.17;;;;;;;16.62;79.40;100453.34;4998743;28;20212;-83
2022/05/11 03:56:37;;;;;;;14.17;12.77;;;;;;;16.61;79.32;100440.03;4997756;28;20206;-84
2022/05/11 03:59:04;;;;;;;14.47;12.27;;;;;;;16.59;79.35;100434.78;4997226;28;20232;-83
2022/05/11 04:01:30;;;;;;;14.30;12.80;;;;;;;16.59;79.38;100437.47;4999008;28;20320;-84
2022/05/11 04:03:57;;;;;;;14.03;12.63;;;;;;;16.57;79.51;100439.44;4998107;28;20603;-84
2022/05/11 04:06:23;;;;;;;14.40;13.00;;;;;;;16.56;79.65;100440.44;4997687;28;20217;-84
2022/05/11 04:08:51;;;;;;;13.90;12.53;;;;;;;16.55;79.64;100433.34;5002847;28;20234;-83
2022/05/11 04:11:19;;;;;;;13.97;12.57;;;;;;;16.53;79.53;100435.34;5002609;28;20579;-83
2022/05/11 04:13:45;;;;;;;15.27;12.67;;;;;;;16.53;79.78;100435.34;5007258;28;20213;-83
2022/05/11 04:16:12;;;;;;;14.17;12.13;;;;;;;16.53;79.82;100432.66;5006594;28;20211;-84
2022/05/11 04:18:39;;;;;;;14.17;12.70;;;;;;;16.54;79.76;100434.34;5001943;28;20227;-84
2022/05/11 04:21:05;;;;;;;12.87;11.57;;;;;;;16.53;79.77;100437.16;5002827;28;20218;-84
2022/05/11 04:23:32;;;;;;;14.33;12.77;;;;;;;16.52;79.87;100449.75;5010973;28;20852;-84
2022/05/11 04:25:59;;;;;;;13.10;11.80;;;;;;;16.52;79.62;100449.75;5002394;28;20217;-83
2022/05/11 04:28:26;;;;;;;13.50;12.13;;;;;;;16.52;79.74;100446.22;5007954;28;20242;-84
2022/05/11 04:31:01;;;;;;;12.87;11.67;;;;;;;16.52;79.43;100443.53;5003262;28;20212;-83
2022/05/11 04:33:27;;;;;;;12.80;11.37;;;;;;;16.51;79.38;100436.47;4996796;28;20195;-83
2022/05/11 04:35:54;;;;;;;14.00;11.40;;;;;;;16.50;79.33;100438.31;5005661;28;20218;-83
2022/05/11 04:38:21;;;;;;;12.23;11.03;;;;;;;16.49;78.97;100439.28;4981701;28;20243;-83
2022/05/11 04:40:47;;;;;;;12.40;11.07;;;;;;;16.49;78.76;100444.66;5000384;28;20668;-85
2022/05/11 04:43:16;;;;;;;15.17;11.13;;;;;;;16.48;78.41;100442.97;4994399;28;20229;-83
2022/05/11 04:45:45;;;;;;;12.97;11.03;;;;;;;16.49;78.61;100447.34;4995441;28;20652;-84
2022/05/11 04:48:12;;;;;;;12.90;11.17;;;;;;;16.51;78.71;100437.31;4994358;28;20285;-84
2022/05/11 04:50:42;;;;;;;14.60;11.93;;;;;;;16.52;78.57;100433.63;4999286;28;20229;-84
2022/05/11 04:53:09;;;;;;;12.40;11.10;;;;;;;16.52;78.60;100428.25;4989082;28;20202;-84
2022/05/11 04:55:36;;;;;;;12.50;11.37;;;;;;;16.51;78.47;100431.94;4997968;28;20206;-84
2022/05/11 04:58:04;;;;;;;12.47;11.20;;;;;;;16.52;78.61;100433.63;4999216;28;20235;-84
2022/05/11 05:00:32;;;;;;;13.57;11.80;;;;;;;16.54;78.56;100437.03;5000472;28;20260;-84
2022/05/11 05:03:05;;;;;;;14.93;11.47;;;;;;;16.56;78.55;100440.44;4986008;28;20232;-83
2022/05/11 05:05:31;;;;;;;12.67;11.37;;;;;;;16.58;78.26;100437.63;4991020;28;20210;-83
2022/05/11 05:07:58;;;;;;;11.67;10.47;;;;;;;16.59;78.26;100440.16;4989636;28;20243;-83
2022/05/11 05:10:24;;;;;;;13.40;12.00;;;;;;;16.61;78.36;100442.72;4985900;28;20211;-85
2022/05/11 05:12:51;;;;;;;13.43;11.33;;;;;;;16.62;78.25;100450.63;4991980;28;20214;-84
2022/05/11 05:15:18;;;;;;;12.97;11.17;;;;;;;16.65;78.10;100441.47;5007674;28;20203;-85
2022/05/11 05:17:46;;;;;;;15.53;12.10;;;;;;;16.66;78.26;100446.69;4989641;28;20204;-84
2022/05/11 05:20:15;;;;;;;12.27;10.97;;;;;;;16.70;78.10;100446.41;4994805;28;20292;-84
2022/05/11 05:22:41;;;;;;;14.70;11.43;;;;;;;16.72;78.03;100450.66;4998430;28;20229;-84
2022/05/11 05:25:09;;;;;;;13.07;11.87;;;;;;;16.75;78.11;100446.84;4993967;28;20225;-85
2022/05/11 05:27:35;;;;;;;12.30;10.27;;;;;;;16.77;77.95;100443.03;4990882;28;20207;-84
2022/05/11 05:32:47;;;;;;;11.70;10.30;;;;;;;16.84;77.77;100438.75;4996461;28;20298;-83
2022/05/11 05:35:16;;;;;;;11.20;10.10;;;;;;;16.87;77.73;100443.84;4990802;28;20202;-86
2022/05/11 05:37:43;;;;;;;11.77;10.67;;;;;;;16.90;77.73;100435.50;4992514;28;20222;-85
2022/05/11 05:40:10;;;;;;;12.60;10.93;;;;;;;16.95;77.58;100441.31;5005473;28;20614;-84
2022/05/11 05:42:38;;;;;;;14.03;10.70;;;;;;;17.00;77.42;100438.22;4997837;28;20815;-85
2022/05/11 05:45:06;;;;;;;12.67;10.43;;;;;;;17.04;77.29;100436.06;4978655;28;20207;-85
2022/05/11 05:47:32;;;;;;;11.73;10.40;;;;;;;17.10;77.26;100430.09;4982022;28;20577;-85
2022/05/11 05:50:00;;;;;;;12.30;11.00;;;;;;;17.15;77.21;100431.38;4994378;28;20213;-85
2022/05/11 05:52:27;;;;;;;11.90;10.70;;;;;;;17.21;77.11;100438.84;4975852;28;20204;-84
2022/05/11 05:54:58;;;;;;;11.83;10.63;;;;;;;17.25;76.96;100431.34;4977379;28;20205;-84
2022/05/11 05:57:24;;;;;;;12.53;11.07;;;;;;;17.30;76.75;100431.78;4977255;28;20214;-84
2022/05/11 05:59:51;;;;;;;12.23;10.80;;;;;;;17.34;76.78;100428.66;4990804;28;20828;-84
2022/05/11 06:02:17;;;;;;;17.23;11.80;;;;;;;17.38;76.78;100418.41;5015981;28;20238;-85
2022/05/11 06:04:46;;;;;;;12.97;11.10;;;;;;;17.45;75.95;100426.75;5013791;28;20210;-85
2022/05/11 06:07:15;;;;;;;14.53;12.23;;;;;;;17.49;76.09;100428.19;5014591;28;20559;-85
2022/05/11 06:09:42;;;;;;;13.20;10.83;;;;;;;17.54;75.94;100420.50;5014598;28;20228;-84
2022/05/11 06:12:11;;;;;;;12.13;9.70;;;;;;;17.59;75.57;100418.19;5013867;28;20212;-85
2022/05/11 06:14:39;;;;;;;10.70;9.53;;;;;;;17.64;75.33;100416.81;4995455;28;20205;-84
2022/05/11 06:17:13;;;;;;;12.93;10.03;;;;;;;17.71;75.16;100406.31;4994438;28;20206;-85
2022/05/11 06:19:40;;;;;;;12.07;9.83;;;;;;;17.75;75.08;100399.59;4994947;28;20269;-85
2022/05/11 06:22:06;;;;;;;11.30;10.30;;;;;;;17.80;74.98;100405.38;4994692;28;20534;-85
2022/05/11 06:24:34;;;;;;;12.00;10.77;;;;;;;17.86;74.77;100403.97;4997133;28;20220;-84
2022/05/11 06:27:01;;;;;;;11.17;10.17;;;;;;;17.89;74.68;100404.50;5014652;28;20207;-85
2022/05/11 06:29:27;;;;;;;11.77;10.53;;;;;;;17.95;74.82;100411.97;5013901;28;20226;-85
2022/05/11 06:31:54;;;;;;;11.87;10.67;;;;;;;17.98;74.61;100400.91;5010776;28;20205;-85
2022/05/11 06:34:20;;;;;;;10.93;9.80;;;;;;;18.04;74.49;100399.47;4996623;28;20205;-85
2022/05/11 06:36:47;;;;;;;11.37;10.23;;;;;;;18.09;74.23;100399.00;4990300;28;20564;-84
2022/05/11 06:39:13;;;;;;;11.57;10.37;;;;;;;18.15;74.03;100395.69;4994476;28;20230;-85
2022/05/11 06:41:41;;;;;;;11.37;9.87;;;;;;;18.20;73.72;100390.69;4995262;28;20221;-85
2022/05/11 06:44:09;;;;;;;11.40;10.23;;;;;;;18.24;73.30;100392.94;4994493;28;20251;-85
2022/05/11 06:46:36;;;;;;;10.67;9.67;;;;;;;18.29;72.84;100387.06;4993859;28;20275;-85
2022/05/11 06:49:02;;;;;;;11.77;10.37;;;;;;;18.35;72.86;100381.94;4994432;28;20591;-84
2022/05/11 06:51:29;;;;;;;12.73;10.00;;;;;;;18.42;72.54;100382.16;4994482;28;20222;-84
2022/05/11 06:59:34;;;;;;;11.87;10.63;;;;;;;18.64;72.24;100372.78;4985163;28;20224;-84
2022/05/11 07:02:04;;;;;;;11.40;10.23;;;;;;;18.69;72.27;100371.31;5013838;28;20208;-85
2022/05/11 07:04:33;;;;;;;11.30;10.20;;;;;;;18.76;71.78;100368.00;5011893;28;20213;-85
2022/05/11 07:07:00;;;;;;;12.17;10.87;;;;;;;18.82;71.91;100370.03;5012530;28;20213;-85
2022/05/11 07:09:31;;;;;;;12.37;11.13;;;;;;;18.91;71.98;100369.13;5012870;28;20242;-85
2022/05/11 07:12:18;;;;;;;13.23;10.73;;;;;;;19.01;71.67;100370.69;5000561;28;20202;-85
2022/05/11 07:14:45;;;;;;;12.70;11.20;;;;;;;19.12;71.35;100361.50;4973929;28;20211;-85
2022/05/11 07:17:12;;;;;;;11.90;10.80;;;;;;;19.21;71.23;100363.25;4972545;28;20225;-85
2022/05/11 07:19:41;;;;;;;10.73;9.67;;;;;;;19.32;70.96;100352.19;4973095;28;20590;-85
2022/05/11 07:22:08;;;;;;;11.27;10.03;;;;;;;19.43;70.07;100353.75;4974644;28;20211;-85
2022/05/11 07:24:34;;;;;;;10.83;9.73;;;;;;;19.47;68.58;100354.28;4977282;28;20235;-85
2022/05/11 07:27:03;;;;;;;10.63;9.63;;;;;;;19.55;68.33;100347.06;4986144;28;20209;-85
2022/05/11 07:29:30;;;;;;;10.10;9.10;;;;;;;19.62;67.47;100345.44;4998383;28;20229;-86
2022/05/11 07:31:56;;;;;;;10.13;9.23;;;;;;;19.72;67.39;100342.59;5001393;28;20213;-85
2022/05/11 07:34:23;;;;;;;9.40;8.50;;;;;;;19.84;67.30;100335.03;5003779;28;20681;-85
2022/05/11 07:36:54;;;;;;;10.33;9.33;;;;;;;19.94;66.75;100333.88;5000818;28;20721;-85
2022/05/11 07:39:21;;;;;;;10.27;9.23;;;;;;;20.04;66.31;100339.16;5003389;28;20230;-85
2022/05/11 07:41:47;;;;;;;9.27;8.20;;;;;;;20.16;65.45;100337.81;4997396;28;20400;-85
2022/05/11 07:44:16;;;;;;;8.80;7.90;;;;;;;20.29;64.73;100340.03;4999490;28;20226;-85
2022/05/11 07:46:43;;;;;;;8.27;7.47;;;;;;;20.43;65.16;100336.69;4997689;28;20228;-85
2022/05/11 07:49:09;;;;;;;9.07;7.77;;;;;;;20.64;63.30;100325.38;4999989;28;20230;-85
2022/05/11 07:51:37;;;;;;;8.23;7.53;;;;;;;20.77;62.21;100323.84;4996635;28;20216;-85
2022/05/11 07:54:04;;;;;;;8.23;7.53;;;;;;;20.94;62.27;100319.25;4996322;28;20287;-85
2022/05/11 08:02:08;;;;;;;8.20;7.40;;;;;;;21.50;59.46;100312.00;4985138;28;20200;-86
2022/05/11 08:04:35;;;;;;;7.80;7.20;;;;;;;21.64;58.84;100318.56;4995528;28;20240;-85
2022/05/11 08:07:02;;;;;;;8.80;7.28;;;;;;;21.79;57.70;100311.34;4992745;28;20221;-85
2022/05/11 08:09:29;;;;;;;7.32;6.43;;;;;;;21.94;57.00;100319.56;4995525;28;20854;-84
2022/05/11 08:11:56;;;;;;;7.22;6.60;;;;;;;22.07;56.29;100306.28;4997864;28;20218;-85
2022/05/11 08:14:24;;;;;;;7.05;6.35;;;;;;;22.20;55.34;100308.44;5001023;28;20731;-85
2022/05/11 08:16:52;;;;;;;6.85;6.35;;;;;;;22.34;54.33;100302.22;4996038;28;20278;-84
2022/05/11 08:19:19;;;;;;;7.60;6.90;;;;;;;22.48;53.59;100309.56;4991699;28;20224;-84
2022/05/11 08:21:47;;;;;;;9.02;6.85;;;;;;;22.56;53.52;100304.06;4991926;28;20222;-85
2022/05/11 08:24:14;;;;;;;6.88;6.28;;;;;;;22.69;53.73;100304.28;4998546;28;20243;-85
2022/05/11 08:26:40;;;;;;;7.65;6.90;;;;;;;22.87;53.63;100300.41;4994407;28;20211;-85
2022/05/11 08:29:07;;;;;;;7.85;7.10;;;;;;;23.05;53.51;100284.63;4990651;28;20330;-85
2022/05/11 08:34:20;;;;;;;7.20;6.50;;;;;;;23.43;52.47;100282.63;4996068;28;20586;-86
2022/05/11 08:36:46;;;;;;;10.68;6.82;;;;;;;23.61;51.57;100285.00;4991863;28;20218;-86
2022/05/11 08:39:13;;;;;;;7.63;6.90;;;;;;;23.66;50.70;100274.38;4994250;28;20238;-86
2022/05/11 08:41:47;;;;;;;7.90;6.68;;;;;;;23.74;49.62;100264.22;4991920;28;20227;-84
2022/05/11 08:44:16;;;;;;;6.57;5.97;;;;;;;23.81;49.54;100273.31;4988705;28;20637;-84
2022/05/11 08:46:51;;;;;;;6.07;5.30;;;;;;;23.93;49.25;100260.06;4994026;28;20237;-85
2022/05/11 08:49:26;;;;;;;7.07;6.40;;;;;;;24.05;48.34;100260.38;4997849;28;20223;-85
2022/05/11 08:51:58;;;;;;;7.70;5.55;;;;;;;24.10;47.15;100256.03;4991155;28;20218;-85
2022/05/11 08:54:35;;;;;;;6.40;5.80;;;;;;;24.15;47.22;100261.75;5002713;28;20417;-85
2022/05/11 08:57:06;;;;;;;6.18;5.57;;;;;;;24.29;47.21;100264.63;5001614;28;20550;-85
2022/05/11 08:59:33;;;;;;;6.28;5.70;;;;;;;24.40;46.54;100253.19;5001617;28;20229;-86
2022/05/11 09:02:06;;;;;;;6.28;5.65;;;;;;;24.53;46.38;100258.78;5003415;28;20208;-84
2022/05/11 09:04:43;;;;;;;7.40;4.85;;;;;;;24.63;46.02;100252.97;5008819;28;20223;-85
2022/05/11 09:07:11;;;;;;;7.53;5.65;;;;;;;24.73;45.45;100254.28;4996902;28;20195;-84
2022/05/11 09:09:38;;;;;;;6.00;5.13;;;;;;;24.82;45.15;100257.72;4990609;28;20227;-85
2022/05/11 09:12:08;;;;;;;5.72;5.15;;;;;;;24.91;43.77;100256.50;4995949;28;20278;-86
2022/05/11 09:14:36;;;;;;;5.93;5.20;;;;;;;24.91;42.81;100245.63;4996260;28;20207;-84
2022/05/11 09:17:09;;;;;;;5.07;4.68;;;;;;;24.97;43.26;100253.03;4996670;28;20990;-85
2022/05/11 09:19:36;;;;;;;5.57;4.57;;;;;;;25.04;43.25;100251.19;5000352;28;20313;-85
2022/05/11 09:22:10;;;;;;;5.03;4.55;;;;;;;25.16;42.51;100246.00;4995189;28;20219;-85
2022/05/11 09:24:45;;;;;;;6.50;4.82;;;;;;;25.24;42.62;100243.97;5004150;28;20225;-85
2022/05/11 09:27:22;;;;;;;5.40;5.00;;;;;;;25.32;41.63;100247.56;5000370;28;20257;-85
2022/05/11 09:29:56;;;;;;;4.85;4.43;;;;;;;25.42;41.59;100248.88;5002404;28;20234;-85
2022/05/11 09:32:37;;;;;;;5.75;5.25;;;;;;;25.51;41.81;100244.09;4995318;28;20665;-85
2022/05/11 09:35:36;;;;;;;7.18;5.10;;;;;;;25.57;41.88;100246.00;4991742;28;20230;-85
2022/05/11 09:38:07;;;;;;;6.55;5.20;;;;;;;25.64;41.60;100246.03;4928547;29;20298;-85
2022/05/11 09:40:51;;;;;;;5.05;4.55;;;;;;;25.73;41.00;100239.38;4986554;28;20294;-85
2022/05/11 09:43:28;;;;;;;5.07;4.57;;;;;;;25.79;41.29;100244.84;4995670;28;20231;-85
2022/05/11 09:45:55;;;;;;;5.20;4.80;;;;;;;25.83;41.04;100237.91;4998258;28;20206;-85
2022/05/11 09:48:27;;;;;;;8.05;5.18;;;;;;;25.85;40.58;100232.25;4994786;28;20693;-86
2022/05/11 09:50:55;;;;;;;8.65;5.10;;;;;;;25.88;41.20;100229.13;4993031;28;20259;-85
2022/05/11 09:53:30;;;;;;;5.10;4.70;;;;;;;25.99;41.22;100225.78;4997905;28;20656;-85
2022/05/11 09:55:56;;;;;;;5.97;4.70;;;;;;;26.08;41.16;100224.53;4992082;28;20214;-85
2022/05/11 09:58:32;;;;;;;5.20;4.70;;;;;;;26.21;41.31;100230.00;4999041;28;20222;-85
2022/05/11 10:01:11;;;;;;;5.05;4.60;;;;;;;26.34;41.30;100222.88;4996156;28;20221;-85
2022/05/11 10:03:43;;;;;;;4.60;4.20;;;;;;;26.48;40.22;100216.41;4998762;28;20732;-85
2022/05/11 10:06:11;;;;;;;4.80;4.38;;;;;;;26.49;40.72;100215.34;4993404;28;20918;-85
2022/05/11 10:08:41;;;;;;;4.47;4.18;;;;;;;26.55;40.24;100212.59;4993422;28;20613;-85
2022/05/11 10:11:13;;;;;;;4.38;3.85;;;;;;;26.61;39.34;100213.66;4993527;28;20587;-85
2022/05/11 10:13:43;;;;;;;4.68;4.25;;;;;;;26.66;39.03;100213.88;5001003;28;20214;-86
2022/05/11 10:22:08;;;;;;;6.65;4.15;;;;;;;26.79;38.62;100191.97;4988019;28;20712;-86
2022/05/11 10:25:02;;;;;;;6.20;3.97;;;;;;;26.85;39.04;100184.81;4994959;28;20206;-86
2022/05/11 10:27:35;;;;;;;8.00;3.70;;;;;;;26.78;37.11;100193.03;4997988;28;20684;-85
2022/05/11 10:30:09;;;;;;;4.72;3.50;;;;;;;26.82;37.61;100183.34;5000798;28;20567;-85
2022/05/11 10:32:57;;;;;;;4.68;3.45;;;;;;;26.85;37.01;100182.94;4998553;28;20230;-85
2022/05/11 10:35:32;;;;;;;4.07;3.40;;;;;;;26.96;37.12;100182.28;4998988;28;20617;-85
2022/05/11 10:38:21;;;;;;;3.95;3.30;;;;;;;27.11;37.09;100176.56;4997895;28;20235;-86
2022/05/11 10:40:55;;;;;;;3.47;3.00;;;;;;;27.20;36.54;100171.72;4994650;28;20218;-86
2022/05/11 10:43:38;;;;;;;6.60;3.00;;;;;;;27.31;36.67;100179.22;4994565;28;20198;-85
2022/05/11 10:46:11;;;;;;;5.78;3.17;;;;;;;27.40;35.95;100175.19;5001753;28;20691;-85
2022/05/11 10:48:51;;;;;;;6.55;3.33;;;;;;;27.45;35.99;100169.03;4999735;28;20228;-85
2022/05/11 10:51:30;;;;;;;3.05;2.85;;;;;;;27.49;35.56;100168.41;4995937;28;20226;-85
2022/05/11 10:54:05;;;;;;;4.80;3.17;;;;;;;27.47;35.08;100170.50;4996482;28;20575;-85
2022/05/11 10:56:47;;;;;;;4.40;3.20;;;;;;;27.45;35.54;100169.03;4991991;28;20711;-85
2022/05/11 10:59:42;;;;;;;3.22;2.90;;;;;;;27.49;35.46;100165.66;4989068;28;20224;-85
2022/05/11 11:02:43;;;;;;;4.68;2.95;;;;;;;27.59;35.86;100167.94;4995698;28;20207;-85
2022/05/11 11:05:16;;;;;;;3.90;2.85;;;;;;;27.73;36.05;100160.50;4971607;28;20314;-85
2022/05/11 11:07:52;;;;;;;7.75;3.30;;;;;;;27.89;35.75;100165.44;4993941;28;20230;-85
2022/05/11 11:10:28;;;;;;;5.07;3.13;;;;;;;28.02;35.46;100162.59;4997888;28;20203;-85
2022/05/11 11:13:29;;;;;;;4.20;2.90;;;;;;;28.09;34.68;100160.66;4999340;28;20198;-86
2022/05/11 11:15:58;;;;;;;4.55;3.00;;;;;;;28.13;34.27;100156.38;4993426;28;20823;-85
2022/05/11 11:18:31;;;;;;;5.10;2.90;;;;;;;28.15;33.75;100146.06;4997748;28;20458;-85
2022/05/11 11:21:01;;;;;;;4.63;2.90;;;;;;;28.17;34.13;100141.19;4992848;28;20209;-86
2022/05/11 11:23:36;;;;;;;8.57;2.97;;;;;;;28.23;33.64;100156.78;5001511;28;20979;-85
2022/05/11 11:26:05;;;;;;;5.30;2.95;;;;;;;28.26;33.40;100148.13;5001707;28;20199;-85
2022/05/11 11:28:34;;;;;;;5.28;2.83;;;;;;;28.29;33.26;100146.84;5000913;28;20219;-85
2022/05/11 11:31:21;;;;;;;5.55;2.78;;;;;;;28.33;33.13;100137.91;4996237;28;20212;-87
2022/05/11 11:34:20;;;;;;;3.72;3.00;;;;;;;28.34;32.83;100139.59;4996801;28;20206;-86
2022/05/11 11:36:47;;;;;;;7.63;2.83;;;;;;;28.34;33.13;100133.28;4994013;28;20582;-85
2022/05/11 11:39:55;;;;;;;6.07;3.13;;;;;;;28.38;33.21;100131.78;4996047;28;20251;-85
2022/05/11 11:42:33;;;;;;;4.68;3.17;;;;;;;28.36;32.94;100124.84;4996374;28;20211;-85
2022/05/11 11:44:59;;;;;;;4.53;3.30;;;;;;;28.34;33.15;100133.28;4991252;28;20307;-86
2022/05/11 11:47:42;;;;;;;8.00;3.60;;;;;;;28.33;33.25;100137.09;5000021;28;20262;-86
2022/05/11 11:50:34;;;;;;;4.13;2.75;;;;;;;28.27;32.88;100138.84;5000610;28;20218;-86
2022/05/11 11:53:11;;;;;;;5.43;3.35;;;;;;;28.17;32.49;100132.97;4998935;28;20211;-86
2022/05/11 11:55:40;;;;;;;4.72;2.88;;;;;;;28.09;33.06;100130.53;4995185;28;20211;-85